Homestead ARB Airport
KHST : now visible

Airfield :











YOU CAN JOIN US ON...

 
LOGIN :

Register | Disclaimer

   EN    FR    IT 

 









Legend :    VFR   Marginal VFR   IFR   Intensive IFR   Very Intensive IFR
Visi :
Ceiling :
>= 8 km
>= 3000ft
5 to 8 km
1000 to 3000 ft
1500m to 5 km
500 to 1000 ft
800 to 1500m
200 to 500 ft
< 800m
< 200 ft
Symbols :   Thunderstorms  Fog  Heavy snow  Heavy precipitations  Wind > 20 kt






- Airport Elevation : 5 ft


KHST - Homestead ARB

CURRENT METAR :
  • 261631Z AUTO 16010KT 10SM SCT024 BKN031 OVC055 28/23 A2998 RMK AO2 SLP156 $

EXPIRED METARs :
  • 261456Z 16012G16KT 10SM SCT018 28/23 A2998 RMK AO2A SLP156 T02770230 52010
  • 261432Z 16008KT 10SM SCT017 28/23 A2998 RMK AO2A SLP156
  • 261401Z AUTO 16009KT 10SM BKN015 27/23 A2997 RMK AO2 SLP152
  • 261356Z AUTO 17009KT 10SM BKN014 27/23 A2997 RMK AO2 BKN V SCT SLP152

TAF AMD TAF KHST
Valid from the 26 at 15:00 until the 27 at 18:00 UTC


261530Z 2615/2718 17010G15KT 9999 VCSH SCT020 BKN080 QNH2994INS
BECMG 2617/2618 19010G15KT 6000 -SHRA BKN020 BKN080 QNH2992INS
BECMG 2705/2706 21006KT 9999 NSW BKN025 BKN080 QNH2993INS TX29/2619Z TN19/2711Z



MET'MAP, your aeronautical weather chart ! - Copyright ORBIFLY December 2007 - Disclaimer

ORBIFLY MET'MAP TEAM :

Programming & Development : Alexandra Zaïnal
Concept & original design : Baudouin d'Aumeries
Assistance for programming : Marc-Olivier Méhu
Technical & hardware support : Manuel Goepfert

Contact : metmap@orbifly.com




SOURCES & CREDITS :

   NOAA       Earth
Advisory